Time;durP1;ratioP1;P1;durP2;ratioP2;P2;SDS_P1;SDS_P2;PMS_P1;PMS_P2;Temp;Humidity;BMP_temperature;BMP_pressure;BME280_temperature;BME280_humidity;BME280_pressure;Samples;Min_cycle;Max_cycle;Signal;HPM_P1;HPM_P2
2022/11/29 00:00:46;;;;;;;2.88;1.33;;;;;;;3.70;100.00;100861.41;5089513;28;20024;-74
2022/11/29 00:03:12;;;;;;;3.83;1.80;;;;;;;3.71;100.00;100858.09;5089650;28;20032;-71
2022/11/29 00:05:38;;;;;;;2.55;1.70;;;;;;;3.45;100.00;100817.03;5089170;28;20055;-70
2022/11/29 00:08:03;;;;;;;1.98;1.50;;;;;;;3.54;100.00;100854.31;5089706;28;20059;-71
2022/11/29 00:10:29;;;;;;;1.10;1.00;;;;;;;3.47;100.00;100853.78;5087957;28;20028;-70
2022/11/29 00:12:54;;;;;;;2.95;1.70;;;;;;;3.48;100.00;100842.81;5085580;28;20031;-70
2022/11/29 00:15:19;;;;;;;2.72;1.40;;;;;;;3.37;100.00;100819.94;5068134;28;20077;-68
2022/11/29 00:17:45;;;;;;;1.98;1.20;;;;;;;3.58;100.00;100845.22;5089296;28;20028;-71
2022/11/29 00:20:11;;;;;;;1.98;1.27;;;;;;;3.64;100.00;100838.00;5066881;28;20071;-70
2022/11/29 00:22:37;;;;;;;1.70;1.30;;;;;;;3.32;100.00;100790.66;5080729;28;20103;-68
2022/11/29 00:25:04;;;;;;;2.42;1.52;;;;;;;3.54;100.00;100830.47;5082148;28;20454;-71
2022/11/29 00:27:29;;;;;;;2.17;1.25;;;;;;;3.46;100.00;100839.25;5089212;28;20498;-70
2022/11/29 00:29:55;;;;;;;1.88;1.40;;;;;;;3.58;100.00;100850.34;5089210;28;20031;-72
2022/11/29 00:32:20;;;;;;;2.10;1.60;;;;;;;3.52;100.00;100842.25;5090309;28;20020;-68
2022/11/29 00:34:46;;;;;;;2.35;1.52;;;;;;;3.66;100.00;100848.31;5090246;28;20470;-70
2022/11/29 00:37:11;;;;;;;9.80;7.85;;;;;;;3.70;100.00;100855.41;5090312;28;20032;-69
2022/11/29 00:39:36;;;;;;;6.03;4.63;;;;;;;3.67;100.00;100852.66;5090093;28;20032;-69
2022/11/29 00:42:02;;;;;;;9.38;8.38;;;;;;;3.67;100.00;100862.88;5090042;28;20061;-73
2022/11/29 00:44:27;;;;;;;3.58;2.10;;;;;;;3.55;100.00;100861.22;5090215;28;20073;-71
2022/11/29 00:46:53;;;;;;;3.70;2.28;;;;;;;3.57;100.00;100863.88;5090477;28;20085;-72
2022/11/29 00:49:18;;;;;;;5.38;3.08;;;;;;;3.61;100.00;100857.31;5090060;28;20024;-70
2022/11/29 00:51:45;;;;;;;7.53;5.38;;;;;;;3.49;100.00;100850.56;5089879;28;20052;-71
2022/11/29 00:54:11;;;;;;;6.28;4.53;;;;;;;3.54;100.00;100836.47;5090017;28;20035;-69
2022/11/29 00:56:36;;;;;;;2.45;1.77;;;;;;;3.55;100.00;100839.88;5089996;28;20056;-69
2022/11/29 00:59:02;;;;;;;2.30;1.70;;;;;;;3.63;100.00;100849.00;5090056;28;20065;-69
2022/11/29 01:01:27;;;;;;;2.47;1.50;;;;;;;3.69;100.00;100846.00;5090061;28;20035;-73
2022/11/29 01:03:53;;;;;;;2.70;1.80;;;;;;;3.59;100.00;100834.25;5090091;28;20413;-71
2022/11/29 01:06:18;;;;;;;2.58;1.67;;;;;;;3.46;100.00;100834.13;5092482;28;20398;-69
2022/11/29 01:08:44;;;;;;;3.05;1.90;;;;;;;3.50;100.00;100837.03;5093631;28;20034;-69
2022/11/29 01:11:17;;;;;;;2.50;1.70;;;;;;;3.48;100.00;100828.38;5093365;28;20414;-69
2022/11/29 01:13:43;;;;;;;2.00;1.60;;;;;;;3.43;100.00;100816.03;5093649;28;20050;-68
2022/11/29 01:16:09;;;;;;;2.15;1.65;;;;;;;3.51;100.00;100832.78;5093598;28;20101;-71
2022/11/29 01:18:35;;;;;;;2.25;1.70;;;;;;;3.45;100.00;100837.47;5093479;28;20494;-68
2022/11/29 01:21:07;;;;;;;2.53;1.73;;;;;;;3.53;100.00;100833.81;5093071;28;20058;-70
2022/11/29 01:26:55;;;;;;;2.00;1.65;;;;;;;3.43;100.00;100778.66;5210135;22;20532;-68
2022/11/29 01:29:20;;;;;;;4.43;2.08;;;;;;;3.56;100.00;100819.59;5073419;28;20024;-72
2022/11/29 01:31:46;;;;;;;2.80;1.80;;;;;;;3.53;100.00;100824.47;5073732;28;20398;-69
2022/11/29 01:34:12;;;;;;;4.05;2.20;;;;;;;3.46;100.00;100824.81;5073249;28;20099;-69
2022/11/29 01:36:37;;;;;;;4.35;2.40;;;;;;;3.55;100.00;100817.81;5073394;28;20024;-68
2022/11/29 01:39:04;;;;;;;3.33;2.15;;;;;;;3.52;100.00;100822.69;5073553;28;20024;-69
2022/11/29 01:41:32;;;;;;;3.60;2.20;;;;;;;3.61;100.00;100819.03;5073218;28;20032;-72
2022/11/29 01:44:12;;;;;;;4.40;2.25;;;;;;;3.62;100.00;100818.25;5073206;28;20035;-68
2022/11/29 01:49:11;;;;;;;3.17;2.03;;;;;;;3.51;100.00;100814.94;5050938;28;20457;-69
2022/11/29 01:51:41;;;;;;;4.32;2.53;;;;;;;3.51;100.00;100815.81;5053304;28;20036;-71
2022/11/29 01:54:08;;;;;;;7.22;3.45;;;;;;;3.57;100.00;100823.03;5053316;28;20090;-71
2022/11/29 01:56:35;;;;;;;3.90;2.22;;;;;;;3.62;100.00;100814.00;5053102;28;20043;-69
2022/11/29 01:59:07;;;;;;;3.10;2.33;;;;;;;3.65;100.00;100821.91;5053083;28;20517;-69
2022/11/29 02:01:35;;;;;;;3.38;2.22;;;;;;;3.68;100.00;100819.56;5052885;28;20029;-69
2022/11/29 02:04:01;;;;;;;3.35;2.10;;;;;;;3.68;100.00;100818.69;5053166;28;20028;-71
2022/11/29 02:06:29;;;;;;;3.88;2.10;;;;;;;3.67;100.00;100807.56;5053073;28;20037;-71
2022/11/29 02:08:55;;;;;;;4.70;2.40;;;;;;;3.65;100.00;100819.34;5052913;28;20125;-70
2022/11/29 02:11:41;;;;;;;3.17;2.30;;;;;;;3.68;100.00;100811.03;5052868;28;20064;-69
2022/11/29 02:14:34;;;;;;;2.70;2.00;;;;;;;3.63;100.00;100810.69;5052751;28;20487;-70
2022/11/29 02:17:22;;;;;;;4.35;2.00;;;;;;;3.52;100.00;100809.91;5052021;28;20032;-71
2022/11/29 02:20:25;;;;;;;3.92;2.40;;;;;;;3.49;100.00;100809.72;5052748;28;20033;-72
2022/11/29 02:23:28;;;;;;;28.50;17.85;;;;;;;3.53;100.00;100803.16;5052795;28;20040;-72
2022/11/29 02:25:59;;;;;;;6.85;4.15;;;;;;;3.50;100.00;100801.28;5052674;28;20107;-68
2022/11/29 02:28:46;;;;;;;9.40;7.95;;;;;;;3.60;100.00;100800.28;5052427;28;20032;-69
2022/11/29 02:31:36;;;;;;;3.95;2.92;;;;;;;3.58;100.00;100799.28;5052655;28;20039;-69
2022/11/29 02:34:07;;;;;;;7.30;5.60;;;;;;;3.59;100.00;100802.69;5052534;28;20072;-69
2022/11/29 02:36:42;;;;;;;6.30;4.00;;;;;;;3.59;100.00;100803.59;5052485;28;20037;-68
2022/11/29 02:39:36;;;;;;;8.63;5.95;;;;;;;3.68;100.00;100800.81;5052499;28;20029;-68
2022/11/29 02:42:13;;;;;;;8.43;5.22;;;;;;;3.65;100.00;100795.47;5050439;28;21104;-69
2022/11/29 02:44:53;;;;;;;3.97;2.38;;;;;;;3.41;100.00;100757.22;5052031;28;20037;-71
2022/11/29 02:47:19;;;;;;;3.67;2.30;;;;;;;3.67;100.00;100809.25;5041369;28;20096;-69
2022/11/29 02:49:53;;;;;;;9.05;7.85;;;;;;;3.68;100.00;100809.34;5032150;28;20403;-70
2022/11/29 02:52:45;;;;;;;25.80;23.27;;;;;;;3.49;100.00;100766.31;5032176;28;20065;-68
2022/11/29 02:55:46;;;;;;;6.72;6.03;;;;;;;3.73;100.00;100810.53;5031942;28;20057;-68
2022/11/29 02:58:36;;;;;;;5.15;3.60;;;;;;;3.80;100.00;100808.41;5031929;28;20029;-68
2022/11/29 03:01:35;;;;;;;5.95;2.97;;;;;;;3.85;100.00;100807.06;5031851;28;20087;-69
2022/11/29 03:04:17;;;;;;;2.20;1.58;;;;;;;3.62;100.00;100805.47;5038070;28;20043;-68
2022/11/29 03:07:02;;;;;;;6.95;4.60;;;;;;;3.64;100.00;100815.03;5051815;28;20032;-68
2022/11/29 03:10:00;;;;;;;3.63;2.55;;;;;;;3.28;100.00;100742.75;5051471;28;20033;-68
2022/11/29 03:12:43;;;;;;;6.05;4.47;;;;;;;3.70;100.00;100819.66;5054996;28;20037;-70
2022/11/29 03:15:27;;;;;;;5.03;3.20;;;;;;;3.76;100.00;100814.09;5043984;28;20059;-69
2022/11/29 03:18:00;;;;;;;3.15;2.00;;;;;;;3.67;100.00;100815.22;5050187;28;20028;-71
2022/11/29 03:20:54;;;;;;;3.78;2.25;;;;;;;3.67;100.00;100809.25;5040600;28;20036;-70
2022/11/29 03:23:27;;;;;;;6.47;2.30;;;;;;;3.73;100.00;100812.22;5046134;28;20063;-70
2022/11/29 03:25:52;;;;;;;11.95;7.80;;;;;;;3.81;100.00;100823.84;5049694;28;20453;-71
2022/11/29 03:28:22;;;;;;;3.38;2.33;;;;;;;3.70;100.00;100825.66;5050214;28;20060;-70
2022/11/29 03:31:17;;;;;;;5.13;3.92;;;;;;;3.62;100.00;100806.34;5082870;28;20576;-70
2022/11/29 03:34:07;;;;;;;33.15;29.73;;;;;;;3.69;100.00;100816.22;5048076;28;20064;-70
2022/11/29 03:36:54;;;;;;;10.85;8.40;;;;;;;3.50;100.00;100791.09;5028303;28;20033;-70
2022/11/29 03:39:29;;;;;;;5.68;4.25;;;;;;;3.70;100.00;100846.09;5027763;28;20075;-70
2022/11/29 03:42:01;;;;;;;11.70;7.20;;;;;;;3.77;100.00;100838.88;5028124;28;20040;-67
2022/11/29 03:44:34;;;;;;;7.85;4.07;;;;;;;3.63;100.00;100818.34;5027900;28;20043;-67
2022/11/29 03:47:08;;;;;;;10.35;6.25;;;;;;;3.76;100.00;100826.88;5027865;28;20037;-68
2022/11/29 03:49:52;;;;;;;3.70;2.50;;;;;;;3.83;100.00;100821.41;5027976;28;20044;-71
2022/11/29 03:53:06;;;;;;;3.38;2.00;;;;;;;3.83;100.00;100823.97;5028023;28;20128;-70
2022/11/29 03:55:45;;;;;;;4.65;2.20;;;;;;;3.85;100.00;100835.16;5027864;28;20041;-67
2022/11/29 03:58:31;;;;;;;4.40;2.50;;;;;;;3.84;100.00;100831.72;5027485;28;20037;-70
2022/11/29 04:01:20;;;;;;;3.90;2.22;;;;;;;3.68;100.00;100817.00;5027705;28;20065;-67
2022/11/29 04:04:01;;;;;;;3.47;2.13;;;;;;;3.83;100.00;100841.84;4949621;29;20043;-69
2022/11/29 04:06:53;;;;;;;5.07;2.22;;;;;;;3.79;100.00;100840.75;4949752;29;20050;-67
2022/11/29 04:10:01;;;;;;;3.63;2.40;;;;;;;3.81;100.00;100851.06;4947085;29;20130;-70
2022/11/29 04:12:58;;;;;;;4.15;2.15;;;;;;;3.68;100.00;100862.97;4926876;29;20086;-70
2022/11/29 04:15:41;;;;;;;2.88;1.90;;;;;;;3.50;100.00;100838.69;4930329;29;20152;-68
2022/11/29 04:18:12;;;;;;;3.88;2.20;;;;;;;3.68;100.00;100859.53;4930433;29;20487;-67
2022/11/29 04:21:00;;;;;;;2.28;1.65;;;;;;;3.79;100.00;100860.28;4930388;29;20044;-67
2022/11/29 04:23:28;;;;;;;3.80;2.10;;;;;;;3.81;100.00;100864.69;4930464;29;20047;-69
2022/11/29 04:26:12;;;;;;;4.70;1.90;;;;;;;3.86;100.00;100852.25;4930317;29;20039;-69
2022/11/29 04:28:54;;;;;;;4.05;2.00;;;;;;;3.86;100.00;100850.63;4930106;29;20528;-70
2022/11/29 04:31:44;;;;;;;5.38;2.40;;;;;;;3.95;100.00;100846.91;4930210;29;20040;-69
2022/11/29 04:34:12;;;;;;;3.78;2.20;;;;;;;3.90;100.00;100851.72;4930391;29;20157;-73
2022/11/29 04:37:25;;;;;;;3.00;2.10;;;;;;;3.71;100.00;100832.56;4930757;29;20153;-70
2022/11/29 04:39:53;;;;;;;3.08;1.83;;;;;;;3.82;100.00;100852.84;4932042;29;20090;-70
2022/11/29 04:42:18;;;;;;;3.13;2.20;;;;;;;3.84;100.00;100859.81;4953358;29;20461;-74
2022/11/29 04:45:16;;;;;;;4.00;1.77;;;;;;;3.89;100.00;100867.81;4953256;29;20101;-67
2022/11/29 04:47:56;;;;;;;2.30;1.48;;;;;;;3.84;100.00;100864.06;4898386;29;20060;-70
2022/11/29 04:50:46;;;;;;;2.17;1.60;;;;;;;3.86;100.00;100865.03;4952608;29;20047;-69
2022/11/29 04:53:17;;;;;;;2.85;1.67;;;;;;;3.88;100.00;100866.03;4953254;29;20051;-69
2022/11/29 04:55:58;;;;;;;4.53;1.95;;;;;;;3.94;100.00;100869.03;4950064;28;20093;-70
2022/11/29 04:58:48;;;;;;;2.97;1.70;;;;;;;4.02;100.00;100872.09;4945504;28;20399;-71
2022/11/29 05:01:38;;;;;;;3.35;2.00;;;;;;;4.06;100.00;100868.97;4963307;28;20035;-70
2022/11/29 05:04:36;;;;;;;3.55;2.05;;;;;;;4.11;100.00;100865.09;4895834;29;20041;-70
2022/11/29 05:07:16;;;;;;;3.38;1.90;;;;;;;4.12;100.00;100860.88;4858458;29;20120;-69
2022/11/29 05:09:44;;;;;;;;;;;;;;;4.06;100.00;100863.88;4858932;29;20056;-68
2022/11/29 05:12:37;;;;;;;2.83;1.90;;;;;;;4.05;100.00;100857.88;4873965;29;20090;-71
2022/11/29 05:15:24;;;;;;;7.82;5.13;;;;;;;4.08;100.00;100866.56;4858418;29;20112;-70
2022/11/29 05:17:59;;;;;;;49.00;25.55;;;;;;;4.08;100.00;100869.97;4839918;29;20053;-70
2022/11/29 05:20:27;;;;;;;12.98;11.65;;;;;;;4.05;100.00;100857.88;4840022;29;20030;-70
2022/11/29 05:23:10;;;;;;;16.17;14.50;;;;;;;4.05;100.00;100846.78;4839928;29;20050;-68
2022/11/29 05:25:48;;;;;;;27.60;24.80;;;;;;;4.09;100.00;100838.53;4889121;29;20040;-68
2022/11/29 05:28:28;;;;;;;22.58;20.00;;;;;;;3.96;100.00;100818.94;4895421;29;20045;-71
2022/11/29 05:31:17;;;;;;;56.75;50.45;;;;;;;3.95;100.00;100847.81;4895640;29;20607;-70
2022/11/29 05:33:51;;;;;;;16.17;13.90;;;;;;;3.71;100.00;100796.81;4894465;29;20029;-69
2022/11/29 05:36:48;;;;;;;8.73;6.50;;;;;;;4.19;100.00;100863.94;4895078;29;20189;-68
2022/11/29 05:39:35;;;;;;;4.68;2.45;;;;;;;4.08;100.00;100849.53;4894934;29;20036;-69
2022/11/29 05:42:06;;;;;;;2.58;2.10;;;;;;;4.09;100.00;100864.09;4926425;28;20111;-70
2022/11/29 05:44:51;;;;;;;3.72;2.17;;;;;;;4.01;100.00;100848.25;5017746;28;20052;-69
2022/11/29 05:47:25;;;;;;;3.03;2.22;;;;;;;4.07;100.00;100864.78;5052787;28;20049;-70
2022/11/29 05:50:08;;;;;;;3.30;1.90;;;;;;;3.66;100.00;100789.59;5052584;28;20049;-69
2022/11/29 05:53:20;;;;;;;2.53;1.92;;;;;;;4.09;100.00;100860.63;5051387;28;20032;-68
2022/11/29 05:55:57;;;;;;;2.88;1.92;;;;;;;4.04;100.00;100866.31;5030112;28;20136;-71
2022/11/29 05:58:38;;;;;;;3.13;1.70;;;;;;;4.02;100.00;100874.66;5030240;28;20044;-70
2022/11/29 06:01:19;;;;;;;2.72;2.00;;;;;;;4.01;100.00;100885.66;5030049;28;20029;-70
2022/11/29 06:03:53;;;;;;;2.63;1.73;;;;;;;3.94;100.00;100886.00;5030113;28;20036;-67
2022/11/29 06:06:27;;;;;;;5.10;1.80;;;;;;;3.97;100.00;100893.91;5030066;28;20045;-70
2022/11/29 06:09:02;;;;;;;3.67;2.25;;;;;;;3.66;100.00;100854.28;5029917;28;20423;-67
2022/11/29 06:11:53;;;;;;;3.45;2.20;;;;;;;3.84;100.00;100864.06;5029880;28;20034;-68
2022/11/29 06:14:33;;;;;;;4.47;2.30;;;;;;;3.98;100.00;100894.00;5029905;28;20037;-70
2022/11/29 06:17:01;;;;;;;3.00;1.95;;;;;;;3.93;100.00;100891.91;5029972;28;20647;-70
2022/11/29 06:19:32;;;;;;;2.25;1.73;;;;;;;3.92;100.00;100885.03;5029845;28;20575;-67
2022/11/29 06:22:04;;;;;;;6.60;1.95;;;;;;;4.01;100.00;100893.31;5029811;28;20112;-70
2022/11/29 06:25:01;;;;;;;2.75;1.92;;;;;;;4.02;100.00;100890.88;5029649;28;20103;-67
2022/11/29 06:28:04;;;;;;;3.67;1.77;;;;;;;4.03;100.00;100884.97;5029499;28;20033;-71
2022/11/29 06:30:49;;;;;;;4.22;2.00;;;;;;;3.87;100.00;100847.25;5029476;28;20069;-70
2022/11/29 06:33:23;;;;;;;8.52;3.90;;;;;;;4.04;100.00;100880.78;5052061;28;20033;-70
2022/11/29 06:35:51;;;;;;;4.93;2.50;;;;;;;4.09;100.00;100887.09;5051750;28;20407;-73
2022/11/29 06:38:23;;;;;;;5.63;2.10;;;;;;;4.05;100.00;100885.13;5051677;28;20029;-67
2022/11/29 06:40:50;;;;;;;2.92;1.80;;;;;;;4.04;100.00;100893.56;5051650;28;20025;-70
2022/11/29 06:43:16;;;;;;;3.42;2.17;;;;;;;3.79;100.00;100848.41;5052084;28;20037;-70
2022/11/29 06:45:49;;;;;;;6.90;4.00;;;;;;;4.07;100.00;100898.88;5051651;28;20033;-69
2022/11/29 06:48:23;;;;;;;3.78;2.15;;;;;;;3.94;100.00;100871.59;5051780;28;20049;-72
2022/11/29 06:51:14;;;;;;;3.92;2.72;;;;;;;4.21;100.00;100902.38;5051503;28;20033;-67
2022/11/29 06:53:45;;;;;;;4.25;2.63;;;;;;;4.34;100.00;100899.91;5051803;28;20158;-71
2022/11/29 06:56:38;;;;;;;4.70;2.35;;;;;;;4.33;100.00;100904.91;5051529;28;20130;-70
2022/11/29 06:59:22;;;;;;;3.58;2.35;;;;;;;4.32;100.00;100882.69;5051545;28;20056;-74
2022/11/29 07:01:54;;;;;;;4.43;2.10;;;;;;;4.33;100.00;100885.34;5051492;28;20044;-70
2022/11/29 07:04:39;;;;;;;4.40;3.08;;;;;;;4.37;100.00;100889.91;5033165;28;20465;-71
2022/11/29 07:07:16;;;;;;;3.70;2.30;;;;;;;4.11;100.00;100841.19;5051318;28;20415;-69
2022/11/29 07:09:42;;;;;;;3.22;2.20;;;;;;;4.19;100.00;100888.63;5051163;28;20025;-68
2022/11/29 07:12:08;;;;;;;135.63;64.53;;;;;;;4.16;100.00;100894.41;5051370;28;20463;-69
2022/11/29 07:14:34;;;;;;;9.20;5.03;;;;;;;4.31;100.00;100886.00;5033410;28;20033;-67
2022/11/29 07:17:29;;;;;;;16.63;13.77;;;;;;;4.35;100.00;100877.78;5051171;28;20021;-67
2022/11/29 07:20:29;;;;;;;3.50;2.10;;;;;;;4.20;100.00;100883.63;5051027;28;20103;-68
2022/11/29 07:23:26;;;;;;;4.53;2.10;;;;;;;4.17;100.00;100885.06;5048771;28;20511;-67
2022/11/29 07:26:04;;;;;;;3.45;2.28;;;;;;;3.95;100.00;100837.59;5050956;28;20427;-72
2022/11/29 07:29:01;;;;;;;6.90;3.83;;;;;;;4.20;100.00;100886.16;5050750;28;20021;-68
2022/11/29 07:31:48;;;;;;;7.93;5.50;;;;;;;4.18;100.00;100886.84;5051280;28;20033;-68
2022/11/29 07:34:28;;;;;;;32.97;21.08;;;;;;;4.16;100.00;100890.94;5050680;28;20025;-67
2022/11/29 07:36:59;;;;;;;66.20;31.48;;;;;;;4.09;100.00;100891.28;5050792;28;20033;-69
2022/11/29 07:39:58;;;;;;;60.70;34.97;;;;;;;4.21;100.00;100893.06;5050847;28;20056;-67
2022/11/29 07:42:49;;;;;;;64.15;43.60;;;;;;;4.28;100.00;100893.47;5050575;28;20025;-70
2022/11/29 07:45:28;;;;;;;10.13;4.63;;;;;;;4.31;100.00;100888.56;5050867;28;20101;-70
2022/11/29 07:47:54;;;;;;;4.40;2.08;;;;;;;4.17;100.00;100883.38;5050492;28;20099;-67
2022/11/29 07:50:20;;;;;;;6.15;2.70;;;;;;;4.23;100.00;100903.38;5050926;28;20064;-68
2022/11/29 07:52:47;;;;;;;4.55;2.75;;;;;;;4.21;100.00;100900.72;5050541;28;20032;-67
2022/11/29 07:55:15;;;;;;;3.58;2.20;;;;;;;4.25;100.00;100903.47;5050522;28;20032;-73
2022/11/29 07:57:41;;;;;;;4.45;2.78;;;;;;;4.29;100.00;100895.25;5050280;28;20025;-70
2022/11/29 08:00:07;;;;;;;4.57;2.72;;;;;;;4.34;100.00;100897.34;5050443;28;20476;-67
2022/11/29 08:02:32;;;;;;;4.70;3.03;;;;;;;4.34;100.00;100905.00;5065923;28;20037;-68
2022/11/29 08:04:58;;;;;;;4.32;3.00;;;;;;;4.27;100.00;100907.03;5050519;28;20033;-73
2022/11/29 08:07:24;;;;;;;7.03;4.80;;;;;;;4.33;100.00;100908.34;5050276;28;20466;-68
2022/11/29 08:09:49;;;;;;;6.38;4.28;;;;;;;4.41;100.00;100916.56;5050315;28;20044;-70
2022/11/29 08:12:15;;;;;;;6.75;4.63;;;;;;;4.40;100.00;100903.66;5050090;28;20037;-70
2022/11/29 08:14:40;;;;;;;6.82;4.57;;;;;;;4.36;100.00;100893.22;5049626;28;20033;-70
2022/11/29 08:17:06;;;;;;;7.00;4.70;;;;;;;4.41;100.00;100913.09;5050342;28;20037;-72
2022/11/29 08:19:31;;;;;;;7.93;5.72;;;;;;;4.43;100.00;100909.00;5050278;28;20060;-67
2022/11/29 08:21:57;;;;;;;10.20;5.75;;;;;;;4.59;100.00;100918.59;5050291;28;20033;-68
2022/11/29 08:24:22;;;;;;;7.85;5.22;;;;;;;4.59;100.00;100919.47;5050395;28;20081;-68
2022/11/29 08:26:48;;;;;;;5.65;3.85;;;;;;;4.51;100.00;100905.25;5049890;28;20044;-67
2022/11/29 08:29:14;;;;;;;5.65;3.80;;;;;;;4.35;100.00;100880.34;5050127;28;20116;-69
2022/11/29 08:31:39;;;;;;;5.82;4.07;;;;;;;4.56;100.00;100916.72;5050130;28;20123;-70
2022/11/29 08:34:06;;;;;;;7.30;4.20;;;;;;;4.62;100.00;100922.25;5049918;28;20033;-69
2022/11/29 08:36:31;;;;;;;7.07;4.95;;;;;;;4.60;100.00;100916.13;5050144;28;20029;-68
2022/11/29 08:38:57;;;;;;;6.25;3.95;;;;;;;4.59;100.00;100911.81;5049879;28;20702;-70
2022/11/29 08:41:23;;;;;;;7.55;4.40;;;;;;;4.38;100.00;100867.75;5050059;28;20103;-69
2022/11/29 08:43:48;;;;;;;9.70;4.90;;;;;;;4.42;100.00;100871.41;5049971;28;20100;-69
2022/11/29 08:46:13;;;;;;;6.82;4.25;;;;;;;4.69;100.00;100914.19;5050020;28;20033;-68
2022/11/29 08:48:39;;;;;;;8.85;5.60;;;;;;;4.50;100.00;100871.16;5049926;28;20053;-68
2022/11/29 08:51:05;;;;;;;6.30;3.55;;;;;;;4.72;100.00;100904.97;5050238;28;20391;-70
2022/11/29 08:53:40;;;;;;;25.80;17.75;;;;;;;4.70;100.00;100909.97;5050016;28;20124;-70
2022/11/29 08:56:06;;;;;;;14.25;10.88;;;;;;;4.62;100.00;100916.25;5049659;28;20552;-72
2022/11/29 08:58:32;;;;;;;5.47;3.60;;;;;;;4.57;100.00;100903.13;5050063;28;20411;-71
2022/11/29 09:00:57;;;;;;;4.88;2.85;;;;;;;4.57;100.00;100905.69;5050097;28;20035;-71
2022/11/29 09:06:13;;;;;;;6.22;3.83;;;;;;;4.27;100.00;100821.00;5049682;28;20040;-68
2022/11/29 09:08:42;;;;;;;15.88;14.13;;;;;;;4.59;100.00;100852.13;5049798;28;20021;-70
2022/11/29 09:11:13;;;;;;;22.25;19.85;;;;;;;4.79;100.00;100886.69;5050017;28;20036;-71
2022/11/29 09:13:41;;;;;;;9.95;7.03;;;;;;;4.83;100.00;100878.44;5047548;28;20495;-71
2022/11/29 09:16:10;;;;;;;13.02;6.28;;;;;;;4.90;100.00;100885.72;5049506;28;20025;-71
2022/11/29 09:18:37;;;;;;;8.03;5.73;;;;;;;4.92;100.00;100876.50;5050089;28;20059;-71
2022/11/29 09:21:10;;;;;;;11.73;9.60;;;;;;;4.92;100.00;100871.38;5049849;28;20051;-71
2022/11/29 09:23:37;;;;;;;15.23;13.73;;;;;;;4.95;100.00;100879.25;5049743;28;20069;-71
2022/11/29 09:26:04;;;;;;;43.75;39.20;;;;;;;4.98;100.00;100868.31;5050161;28;20499;-75
2022/11/29 09:28:29;;;;;;;7.57;5.15;;;;;;;4.89;100.00;100866.03;5053078;28;20031;-70
2022/11/29 09:30:55;;;;;;;4.35;3.03;;;;;;;4.82;100.00;100859.66;5053353;28;20104;-71
2022/11/29 09:33:20;;;;;;;6.45;3.67;;;;;;;4.94;100.00;100859.56;5053013;28;20029;-70
2022/11/29 09:35:47;;;;;;;5.10;3.28;;;;;;;4.98;100.00;100847.84;5053182;28;20071;-70
2022/11/29 09:38:13;;;;;;;3.85;2.75;;;;;;;5.02;100.00;100848.16;5053228;28;20025;-71
2022/11/29 09:40:51;;;;;;;5.57;3.60;;;;;;;5.09;100.00;100844.31;5052638;28;20033;-70
2022/11/29 09:43:30;;;;;;;6.05;3.78;;;;;;;5.13;100.00;100833.47;5052718;28;20032;-71
2022/11/29 09:46:08;;;;;;;6.72;2.88;;;;;;;5.20;100.00;100837.34;5052757;28;20025;-70
2022/11/29 09:49:03;;;;;;;4.28;2.53;;;;;;;5.22;100.00;100834.88;5052636;28;20476;-71
2022/11/29 09:51:37;;;;;;;5.22;2.92;;;;;;;5.17;100.00;100832.00;5052941;28;20086;-68
2022/11/29 09:54:28;;;;;;;4.05;2.53;;;;;;;5.14;100.00;100829.28;5052847;28;20029;-70
2022/11/29 09:56:55;;;;;;;4.30;2.50;;;;;;;5.20;100.00;100834.78;4991090;28;20042;-73
2022/11/29 09:59:39;;;;;;;2.80;1.90;;;;;;;5.15;100.00;100828.50;4990974;28;20081;-70
2022/11/29 10:02:37;;;;;;;3.60;2.28;;;;;;;5.21;100.00;100831.44;4990778;28;20046;-72
2022/11/29 10:05:12;;;;;;;4.07;2.42;;;;;;;5.13;100.00;100830.94;4990920;28;20030;-67
2022/11/29 10:08:03;;;;;;;5.07;2.63;;;;;;;5.14;100.00;100829.28;4990706;28;20452;-67
2022/11/29 10:10:52;;;;;;;4.03;2.05;;;;;;;5.15;100.00;100831.91;4913804;29;20091;-72
2022/11/29 10:13:44;;;;;;;4.18;2.63;;;;;;;5.17;100.00;100830.34;4913855;29;20703;-70
2022/11/29 10:16:27;;;;;;;3.13;1.70;;;;;;;5.11;100.00;100834.16;4900654;29;20040;-68
2022/11/29 10:19:03;;;;;;;3.20;2.20;;;;;;;5.17;100.00;100829.44;4913755;29;20092;-70
2022/11/29 10:21:34;;;;;;;4.15;2.72;;;;;;;5.15;100.00;100819.13;4913630;29;20036;-74
2022/11/29 10:24:08;;;;;;;6.22;3.13;;;;;;;5.28;100.00;100831.06;4913549;29;20031;-67
2022/11/29 10:26:34;;;;;;;4.18;3.10;;;;;;;5.28;100.00;100823.38;4913473;29;20036;-68
2022/11/29 10:28:59;;;;;;;4.55;2.70;;;;;;;5.29;100.00;100827.69;4913540;29;20527;-68
2022/11/29 10:31:33;;;;;;;6.13;3.78;;;;;;;5.38;100.00;100821.38;4913566;29;20029;-72
2022/11/29 10:34:02;;;;;;;6.78;5.93;;;;;;;5.25;100.00;100814.63;4940314;28;20039;-71
2022/11/29 10:36:40;;;;;;;6.80;6.10;;;;;;;5.27;100.00;100811.34;4951465;29;20050;-71
2022/11/29 10:39:19;;;;;;;29.23;26.23;;;;;;;5.34;100.00;100828.84;4950201;28;20103;-70
2022/11/29 10:41:48;;;;;;;7.90;5.40;;;;;;;5.35;100.00;100816.97;4950804;29;20122;-70
2022/11/29 10:44:14;;;;;;;5.55;3.63;;;;;;;5.32;100.00;100809.97;4950762;29;20114;-67
2022/11/29 10:46:40;;;;;;;4.50;3.17;;;;;;;5.37;100.00;100814.50;4968811;28;20505;-69
2022/11/29 10:49:12;;;;;;;65.55;33.80;;;;;;;5.16;100.00;100767.16;5050359;28;20052;-69
2022/11/29 10:51:37;;;;;;;24.30;21.88;;;;;;;5.24;100.00;100780.44;5051521;28;20064;-67
2022/11/29 10:54:17;;;;;;;33.50;30.08;;;;;;;5.36;100.00;100782.91;5051055;28;20091;-71
2022/11/29 10:56:44;;;;;;;11.85;9.85;;;;;;;5.45;100.00;100798.81;5050852;28;20053;-68
2022/11/29 10:59:22;;;;;;;12.70;9.23;;;;;;;5.42;100.00;100796.09;5046116;28;20065;-70
2022/11/29 11:01:49;;;;;;;6.82;4.70;;;;;;;5.38;100.00;100770.19;5051101;28;20041;-71
2022/11/29 11:04:25;;;;;;;5.63;3.20;;;;;;;5.41;100.00;100783.16;5050998;28;20025;-68
2022/11/29 11:06:55;;;;;;;4.53;2.85;;;;;;;5.49;100.00;100794.78;5048669;28;20048;-70
2022/11/29 11:09:35;;;;;;;5.07;3.42;;;;;;;5.29;100.00;100750.88;5050357;28;20037;-70
2022/11/29 11:12:05;;;;;;;4.13;2.88;;;;;;;5.33;100.00;100741.72;5049861;28;20557;-70
2022/11/29 11:14:40;;;;;;;7.72;4.22;;;;;;;5.40;100.00;100743.88;5050830;28;20053;-71
2022/11/29 11:17:25;;;;;;;4.47;3.05;;;;;;;5.59;100.00;100781.75;5050328;28;20037;-70
2022/11/29 11:19:57;;;;;;;5.95;2.92;;;;;;;5.56;100.00;100786.69;5047311;28;20075;-72
2022/11/29 11:22:24;;;;;;;5.55;3.53;;;;;;;5.56;100.00;100776.44;5036613;28;20518;-70
2022/11/29 11:25:09;;;;;;;4.07;2.60;;;;;;;5.55;100.00;100773.81;5039995;28;20029;-70
2022/11/29 11:27:40;;;;;;;4.15;2.83;;;;;;;5.52;100.00;100764.25;5030397;28;20029;-70
2022/11/29 11:30:20;;;;;;;4.80;3.00;;;;;;;5.36;100.00;100731.69;5048696;28;20044;-72
2022/11/29 11:33:25;;;;;;;6.55;3.55;;;;;;;5.59;100.00;100760.38;5050493;28;20025;-70
2022/11/29 11:36:18;;;;;;;6.38;3.05;;;;;;;5.49;100.00;100764.91;5043491;28;20138;-69
2022/11/29 11:39:11;;;;;;;5.78;3.88;;;;;;;5.51;100.00;100762.47;5047193;28;20021;-71
2022/11/29 11:44:48;;;;;;;5.70;3.83;;;;;;;5.49;100.00;100734.19;5008023;28;20104;-71
2022/11/29 11:47:24;;;;;;;5.88;3.90;;;;;;;5.62;100.00;100756.34;5008254;28;20084;-68
2022/11/29 11:50:02;;;;;;;5.35;3.70;;;;;;;5.62;100.00;100751.22;5006977;28;20032;-69
2022/11/29 11:52:29;;;;;;;5.60;3.97;;;;;;;5.22;100.00;100687.31;5008249;28;20428;-71
2022/11/29 11:54:57;;;;;;;8.02;4.57;;;;;;;5.55;100.00;100743.94;5016161;28;20047;-70
2022/11/29 11:57:25;;;;;;;7.97;5.07;;;;;;;5.59;100.00;100747.59;5007567;28;20153;-68
2022/11/29 11:59:52;;;;;;;7.22;5.10;;;;;;;5.46;100.00;100726.34;5009596;28;20038;-71
2022/11/29 12:02:28;;;;;;;10.00;6.10;;;;;;;5.63;100.00;100745.31;5012015;28;20414;-71
2022/11/29 12:04:57;;;;;;;10.07;6.60;;;;;;;5.69;100.00;100747.34;5007926;28;20484;-71
2022/11/29 12:07:34;;;;;;;9.33;7.23;;;;;;;5.73;100.00;100740.72;5007877;28;20026;-69
2022/11/29 12:10:05;;;;;;;21.70;19.50;;;;;;;5.56;100.00;100709.88;5007778;28;20352;-71
2022/11/29 12:12:38;;;;;;;22.60;20.33;;;;;;;5.82;100.00;100749.00;5007696;28;20105;-71
2022/11/29 12:15:13;;;;;;;7.53;5.60;;;;;;;5.89;100.00;100748.53;5015916;28;20420;-71